sensor_id;sensor_type;location;lat;lon;timestamp;pressure;altitude;pressure_sealevel;temperature;humidity
73981;BME280;62348;51.412;5.436;2023-04-25T00:01:04;100959.44;;;6.39;85.88
73981;BME280;62348;51.412;5.436;2023-04-25T00:03:31;100965.13;;;6.43;86.01
73981;BME280;62348;51.412;5.436;2023-04-25T00:05:57;100964.31;;;6.42;85.95
73981;BME280;62348;51.412;5.436;2023-04-25T00:08:24;100963.72;;;6.40;85.75
73981;BME280;62348;51.412;5.436;2023-04-25T00:10:50;100963.50;;;6.42;85.79
73981;BME280;62348;51.412;5.436;2023-04-25T00:13:15;100969.69;;;6.42;85.67
73981;BME280;62348;51.412;5.436;2023-04-25T00:15:43;100974.47;;;6.40;86.17
73981;BME280;62348;51.412;5.436;2023-04-25T00:18:09;100975.53;;;6.39;86.36
73981;BME280;62348;51.412;5.436;2023-04-25T00:20:36;100970.97;;;6.40;86.09
73981;BME280;62348;51.412;5.436;2023-04-25T00:23:01;100980.66;;;6.41;86.29
73981;BME280;62348;51.412;5.436;2023-04-25T00:25:27;100984.41;;;6.40;85.77
73981;BME280;62348;51.412;5.436;2023-04-25T00:27:52;100984.63;;;6.38;86.28
73981;BME280;62348;51.412;5.436;2023-04-25T00:30:18;100979.03;;;6.40;85.97
73981;BME280;62348;51.412;5.436;2023-04-25T00:32:43;100975.53;;;6.39;86.19
73981;BME280;62348;51.412;5.436;2023-04-25T00:35:09;100975.19;;;6.36;86.16
73981;BME280;62348;51.412;5.436;2023-04-25T00:37:35;100984.03;;;6.36;86.57
73981;BME280;62348;51.412;5.436;2023-04-25T00:40:00;100978.66;;;6.36;86.34
73981;BME280;62348;51.412;5.436;2023-04-25T00:42:26;100977.03;;;6.35;86.20
73981;BME280;62348;51.412;5.436;2023-04-25T00:44:52;100978.66;;;6.36;86.66
73981;BME280;62348;51.412;5.436;2023-04-25T00:47:18;100976.78;;;6.37;86.42
73981;BME280;62348;51.412;5.436;2023-04-25T00:49:43;100966.88;;;6.37;86.45
73981;BME280;62348;51.412;5.436;2023-04-25T00:52:09;100967.13;;;6.36;86.25
73981;BME280;62348;51.412;5.436;2023-04-25T00:54:35;100963.00;;;6.33;86.74
73981;BME280;62348;51.412;5.436;2023-04-25T00:57:01;100967.34;;;6.34;86.24
73981;BME280;62348;51.412;5.436;2023-04-25T00:59:28;100970.25;;;6.33;86.46
73981;BME280;62348;51.412;5.436;2023-04-25T01:01:53;100973.06;;;6.26;86.81
73981;BME280;62348;51.412;5.436;2023-04-25T01:04:19;100971.97;;;6.27;86.83
73981;BME280;62348;51.412;5.436;2023-04-25T01:06:45;100974.91;;;6.25;86.66
73981;BME280;62348;51.412;5.436;2023-04-25T01:09:11;100970.38;;;6.26;86.21
73981;BME280;62348;51.412;5.436;2023-04-25T01:11:36;100967.91;;;6.24;86.48
73981;BME280;62348;51.412;5.436;2023-04-25T01:14:02;100970.38;;;6.26;86.77
73981;BME280;62348;51.412;5.436;2023-04-25T01:16:27;100974.66;;;6.27;86.54
73981;BME280;62348;51.412;5.436;2023-04-25T01:18:53;100971.41;;;6.25;86.88
73981;BME280;62348;51.412;5.436;2023-04-25T01:21:19;100975.13;;;6.24;86.98
73981;BME280;62348;51.412;5.436;2023-04-25T01:23:44;100971.41;;;6.25;86.61
73981;BME280;62348;51.412;5.436;2023-04-25T01:26:11;100967.53;;;6.21;86.45
73981;BME280;62348;51.412;5.436;2023-04-25T01:28:38;100977.00;;;6.23;86.74
73981;BME280;62348;51.412;5.436;2023-04-25T01:31:06;100973.13;;;6.19;86.23
73981;BME280;62348;51.412;5.436;2023-04-25T01:33:32;100973.22;;;6.13;86.49
73981;BME280;62348;51.412;5.436;2023-04-25T01:35:58;100979.19;;;6.15;86.41
73981;BME280;62348;51.412;5.436;2023-04-25T01:38:23;100980.66;;;6.11;86.48
73981;BME280;62348;51.412;5.436;2023-04-25T01:40:51;100980.56;;;6.05;86.81
73981;BME280;62348;51.412;5.436;2023-04-25T01:43:17;100976.22;;;6.04;86.77
73981;BME280;62348;51.412;5.436;2023-04-25T01:45:43;100973.75;;;6.03;86.69
73981;BME280;62348;51.412;5.436;2023-04-25T01:48:10;100977.94;;;5.99;86.66
73981;BME280;62348;51.412;5.436;2023-04-25T01:50:37;100979.63;;;5.93;86.84
73981;BME280;62348;51.412;5.436;2023-04-25T01:53:04;100990.84;;;5.90;87.25
73981;BME280;62348;51.412;5.436;2023-04-25T01:55:29;100993.38;;;5.85;87.26
73981;BME280;62348;51.412;5.436;2023-04-25T01:57:55;100988.22;;;5.83;87.42
73981;BME280;62348;51.412;5.436;2023-04-25T02:00:21;100984.97;;;5.81;87.53
73981;BME280;62348;51.412;5.436;2023-04-25T02:02:46;101001.28;;;5.80;87.72
73981;BME280;62348;51.412;5.436;2023-04-25T02:05:11;100994.50;;;5.77;87.22
73981;BME280;62348;51.412;5.436;2023-04-25T02:07:37;100999.06;;;5.77;87.80
73981;BME280;62348;51.412;5.436;2023-04-25T02:10:03;101002.19;;;5.74;88.06
73981;BME280;62348;51.412;5.436;2023-04-25T02:12:28;101011.84;;;5.75;88.09
73981;BME280;62348;51.412;5.436;2023-04-25T02:14:54;101002.63;;;5.71;88.20
73981;BME280;62348;51.412;5.436;2023-04-25T02:17:20;100998.53;;;5.68;88.58
73981;BME280;62348;51.412;5.436;2023-04-25T02:19:46;101003.22;;;5.73;88.79
73981;BME280;62348;51.412;5.436;2023-04-25T02:22:12;100998.69;;;5.73;88.65
73981;BME280;62348;51.412;5.436;2023-04-25T02:24:38;101005.47;;;5.76;89.32
73981;BME280;62348;51.412;5.436;2023-04-25T02:27:03;101008.72;;;5.78;89.00
73981;BME280;62348;51.412;5.436;2023-04-25T02:29:29;101009.53;;;5.78;89.35
73981;BME280;62348;51.412;5.436;2023-04-25T02:31:55;101018.19;;;5.80;89.28
73981;BME280;62348;51.412;5.436;2023-04-25T02:34:20;101013.06;;;5.79;89.54
73981;BME280;62348;51.412;5.436;2023-04-25T02:36:46;101011.19;;;5.79;89.20
73981;BME280;62348;51.412;5.436;2023-04-25T02:39:11;101003.75;;;5.81;89.20
73981;BME280;62348;51.412;5.436;2023-04-25T02:41:37;101010.75;;;5.82;89.14
73981;BME280;62348;51.412;5.436;2023-04-25T02:44:02;101011.78;;;5.81;89.25
73981;BME280;62348;51.412;5.436;2023-04-25T02:46:27;101009.91;;;5.82;89.04
73981;BME280;62348;51.412;5.436;2023-04-25T02:48:53;101009.09;;;5.81;89.14
73981;BME280;62348;51.412;5.436;2023-04-25T02:51:18;101021.50;;;5.82;89.08
73981;BME280;62348;51.412;5.436;2023-04-25T02:53:44;101010.97;;;5.81;89.16
73981;BME280;62348;51.412;5.436;2023-04-25T02:56:09;101010.97;;;5.81;89.35
73981;BME280;62348;51.412;5.436;2023-04-25T02:58:35;101011.78;;;5.81;88.88
73981;BME280;62348;51.412;5.436;2023-04-25T03:01:00;101006.84;;;5.78;88.72
73981;BME280;62348;51.412;5.436;2023-04-25T03:03:25;101008.28;;;5.81;89.09
73981;BME280;62348;51.412;5.436;2023-04-25T03:05:51;101009.78;;;5.77;88.92
73981;BME280;62348;51.412;5.436;2023-04-25T03:08:17;101005.47;;;5.76;88.79
73981;BME280;62348;51.412;5.436;2023-04-25T03:10:44;101010.00;;;5.75;88.69
73981;BME280;62348;51.412;5.436;2023-04-25T03:13:10;101011.03;;;5.74;88.70
73981;BME280;62348;51.412;5.436;2023-04-25T03:15:36;101015.00;;;5.72;88.78
73981;BME280;62348;51.412;5.436;2023-04-25T03:18:02;101010.66;;;5.71;88.83
73981;BME280;62348;51.412;5.436;2023-04-25T03:20:28;101017.91;;;5.70;89.20
73981;BME280;62348;51.412;5.436;2023-04-25T03:22:53;101020.00;;;5.68;89.16
73981;BME280;62348;51.412;5.436;2023-04-25T03:25:20;101021.41;;;5.71;89.41
73981;BME280;62348;51.412;5.436;2023-04-25T03:27:46;101028.63;;;5.70;88.84
73981;BME280;62348;51.412;5.436;2023-04-25T03:30:11;101020.38;;;5.72;88.65
73981;BME280;62348;51.412;5.436;2023-04-25T03:32:36;101022.25;;;5.71;88.82
73981;BME280;62348;51.412;5.436;2023-04-25T03:35:02;101031.53;;;5.68;89.04
73981;BME280;62348;51.412;5.436;2023-04-25T03:37:28;101021.63;;;5.69;89.17
73981;BME280;62348;51.412;5.436;2023-04-25T03:39:53;101020.00;;;5.68;89.00
73981;BME280;62348;51.412;5.436;2023-04-25T03:42:19;101016.88;;;5.71;88.94
73981;BME280;62348;51.412;5.436;2023-04-25T03:44:45;101025.72;;;5.72;88.86
73981;BME280;62348;51.412;5.436;2023-04-25T03:47:10;101020.97;;;5.74;88.82
73981;BME280;62348;51.412;5.436;2023-04-25T03:49:35;101022.69;;;5.68;88.46
73981;BME280;62348;51.412;5.436;2023-04-25T03:52:02;101018.13;;;5.68;88.47
73981;BME280;62348;51.412;5.436;2023-04-25T03:54:28;101024.56;;;5.67;88.87
73981;BME280;62348;51.412;5.436;2023-04-25T03:56:53;101021.41;;;5.71;88.74
73981;BME280;62348;51.412;5.436;2023-04-25T03:59:18;101030.03;;;5.73;89.22
73981;BME280;62348;51.412;5.436;2023-04-25T04:01:44;101030.50;;;5.70;88.69
73981;BME280;62348;51.412;5.436;2023-04-25T04:04:09;101027.81;;;5.70;89.12
73981;BME280;62348;51.412;5.436;2023-04-25T04:06:35;101039.38;;;5.70;88.86
73981;BME280;62348;51.412;5.436;2023-04-25T04:09:01;101040.19;;;5.71;89.46
73981;BME280;62348;51.412;5.436;2023-04-25T04:11:27;101041.03;;;5.71;89.38
73981;BME280;62348;51.412;5.436;2023-04-25T04:13:52;101037.72;;;5.69;88.83
73981;BME280;62348;51.412;5.436;2023-04-25T04:16:18;101037.28;;;5.72;89.18
73981;BME280;62348;51.412;5.436;2023-04-25T04:18:45;101036.69;;;5.70;89.14
73981;BME280;62348;51.412;5.436;2023-04-25T04:21:10;101046.59;;;5.70;88.87
73981;BME280;62348;51.412;5.436;2023-04-25T04:23:36;101050.09;;;5.70;89.45
73981;BME280;62348;51.412;5.436;2023-04-25T04:26:02;101046.00;;;5.67;89.22
73981;BME280;62348;51.412;5.436;2023-04-25T04:28:28;101049.06;;;5.71;89.27
73981;BME280;62348;51.412;5.436;2023-04-25T04:30:53;101053.59;;;5.71;89.20
73981;BME280;62348;51.412;5.436;2023-04-25T04:33:18;101056.88;;;5.73;89.51
73981;BME280;62348;51.412;5.436;2023-04-25T04:35:45;101053.59;;;5.71;89.66
73981;BME280;62348;51.412;5.436;2023-04-25T04:38:12;101058.53;;;5.74;89.35
73981;BME280;62348;51.412;5.436;2023-04-25T04:40:40;101058.53;;;5.74;89.55
73981;BME280;62348;51.412;5.436;2023-04-25T04:43:07;101064.09;;;5.72;89.60
73981;BME280;62348;51.412;5.436;2023-04-25T04:45:34;101071.34;;;5.72;89.68
73981;BME280;62348;51.412;5.436;2023-04-25T04:47:59;101073.22;;;5.71;89.02
73981;BME280;62348;51.412;5.436;2023-04-25T04:50:24;101067.59;;;5.73;89.50
73981;BME280;62348;51.412;5.436;2023-04-25T04:52:51;101072.16;;;5.72;89.37
73981;BME280;62348;51.412;5.436;2023-04-25T04:55:17;101070.53;;;5.71;89.06
73981;BME280;62348;51.412;5.436;2023-04-25T04:57:42;101065.75;;;5.73;89.10
73981;BME280;62348;51.412;5.436;2023-04-25T05:00:08;101071.50;;;5.77;88.71
73981;BME280;62348;51.412;5.436;2023-04-25T05:02:37;101077.69;;;5.77;88.92
73981;BME280;62348;51.412;5.436;2023-04-25T05:05:02;101089.44;;;5.76;88.57
73981;BME280;62348;51.412;5.436;2023-04-25T05:07:28;101094.38;;;5.79;88.95
73981;BME280;62348;51.412;5.436;2023-04-25T05:09:53;101101.75;;;5.84;88.24
73981;BME280;62348;51.412;5.436;2023-04-25T05:12:19;101100.72;;;5.85;88.70
73981;BME280;62348;51.412;5.436;2023-04-25T05:14:44;101102.81;;;5.83;88.19
73981;BME280;62348;51.412;5.436;2023-04-25T05:17:09;101102.59;;;5.84;88.13
73981;BME280;62348;51.412;5.436;2023-04-25T05:19:35;101107.13;;;5.84;87.97
73981;BME280;62348;51.412;5.436;2023-04-25T05:22:01;101115.16;;;5.84;87.76
73981;BME280;62348;51.412;5.436;2023-04-25T05:24:26;101113.31;;;5.84;88.14
73981;BME280;62348;51.412;5.436;2023-04-25T05:26:52;101121.97;;;5.86;88.20
73981;BME280;62348;51.412;5.436;2023-04-25T05:29:18;101123.59;;;5.87;88.09
73981;BME280;62348;51.412;5.436;2023-04-25T05:31:44;101119.66;;;5.90;87.67
73981;BME280;62348;51.412;5.436;2023-04-25T05:34:09;101119.88;;;5.89;87.40
73981;BME280;62348;51.412;5.436;2023-04-25T05:36:35;101120.47;;;5.91;87.05
73981;BME280;62348;51.412;5.436;2023-04-25T05:39:00;101125.19;;;5.95;87.31
73981;BME280;62348;51.412;5.436;2023-04-25T05:41:25;101125.56;;;5.99;87.17
73981;BME280;62348;51.412;5.436;2023-04-25T05:43:51;101127.13;;;6.06;87.28
73981;BME280;62348;51.412;5.436;2023-04-25T05:46:16;101123.81;;;6.11;86.39
73981;BME280;62348;51.412;5.436;2023-04-25T05:48:45;101130.50;;;6.20;86.78
73981;BME280;62348;51.412;5.436;2023-04-25T05:51:10;101141.00;;;6.22;86.20
73981;BME280;62348;51.412;5.436;2023-04-25T05:53:36;101143.25;;;6.25;86.24
73981;BME280;62348;51.412;5.436;2023-04-25T05:56:01;101140.34;;;6.27;86.00
73981;BME280;62348;51.412;5.436;2023-04-25T05:58:27;101140.34;;;6.27;86.61
73981;BME280;62348;51.412;5.436;2023-04-25T06:00:52;101143.41;;;6.30;86.36
73981;BME280;62348;51.412;5.436;2023-04-25T06:03:17;101146.91;;;6.31;85.83
73981;BME280;62348;51.412;5.436;2023-04-25T06:05:43;101154.53;;;6.34;85.90
73981;BME280;62348;51.412;5.436;2023-04-25T06:08:09;101148.69;;;6.37;86.01
73981;BME280;62348;51.412;5.436;2023-04-25T06:10:36;101151.97;;;6.39;85.88
73981;BME280;62348;51.412;5.436;2023-04-25T06:13:01;101154.81;;;6.44;86.17
73981;BME280;62348;51.412;5.436;2023-04-25T06:15:27;101163.84;;;6.50;85.45
73981;BME280;62348;51.412;5.436;2023-04-25T06:17:52;101156.34;;;6.52;84.43
73981;BME280;62348;51.412;5.436;2023-04-25T06:20:18;101158.59;;;6.55;84.28
73981;BME280;62348;51.412;5.436;2023-04-25T06:22:48;101159.94;;;6.64;84.66
73981;BME280;62348;51.412;5.436;2023-04-25T06:25:13;101167.09;;;6.70;84.06
73981;BME280;62348;51.412;5.436;2023-04-25T06:27:39;101158.69;;;6.78;84.90
73981;BME280;62348;51.412;5.436;2023-04-25T06:30:04;101160.03;;;6.88;83.98
73981;BME280;62348;51.412;5.436;2023-04-25T06:32:30;101166.34;;;6.93;82.94
73981;BME280;62348;51.412;5.436;2023-04-25T06:34:55;101171.91;;;7.10;82.74
73981;BME280;62348;51.412;5.436;2023-04-25T06:37:21;101176.53;;;7.45;81.76
73981;BME280;62348;51.412;5.436;2023-04-25T06:39:47;101183.00;;;7.79;79.40
73981;BME280;62348;51.412;5.436;2023-04-25T06:42:12;101181.16;;;7.80;77.74
73981;BME280;62348;51.412;5.436;2023-04-25T06:44:37;101183.13;;;7.73;76.57
73981;BME280;62348;51.412;5.436;2023-04-25T06:47:03;101182.28;;;7.60;76.83
73981;BME280;62348;51.412;5.436;2023-04-25T06:49:28;101186.03;;;7.59;75.43
73981;BME280;62348;51.412;5.436;2023-04-25T06:51:53;101187.44;;;7.74;76.60
73981;BME280;62348;51.412;5.436;2023-04-25T06:54:19;101187.81;;;7.89;76.10
73981;BME280;62348;51.412;5.436;2023-04-25T06:56:44;101198.56;;;8.13;76.00
73981;BME280;62348;51.412;5.436;2023-04-25T06:59:10;101199.63;;;8.76;71.82
73981;BME280;62348;51.412;5.436;2023-04-25T07:01:35;101200.03;;;9.42;67.98
73981;BME280;62348;51.412;5.436;2023-04-25T07:04:01;101194.28;;;9.89;66.39
73981;BME280;62348;51.412;5.436;2023-04-25T07:06:26;101195.63;;;9.87;65.13
73981;BME280;62348;51.412;5.436;2023-04-25T07:08:53;101199.28;;;9.81;64.43
73981;BME280;62348;51.412;5.436;2023-04-25T07:11:18;101201.91;;;9.75;64.21
73981;BME280;62348;51.412;5.436;2023-04-25T07:13:44;101205.34;;;9.71;63.25
73981;BME280;62348;51.412;5.436;2023-04-25T07:16:09;101211.72;;;9.65;62.46
73981;BME280;62348;51.412;5.436;2023-04-25T07:18:35;101210.91;;;9.64;62.69
73981;BME280;62348;51.412;5.436;2023-04-25T07:21:00;101217.94;;;9.65;62.75
73981;BME280;62348;51.412;5.436;2023-04-25T07:23:25;101222.38;;;9.71;62.74
73981;BME280;62348;51.412;5.436;2023-04-25T07:25:51;101213.28;;;9.77;61.79
73981;BME280;62348;51.412;5.436;2023-04-25T07:28:16;101219.84;;;9.82;61.19
73981;BME280;62348;51.412;5.436;2023-04-25T07:30:42;101212.53;;;9.82;59.37
73981;BME280;62348;51.412;5.436;2023-04-25T07:33:07;101215.91;;;9.89;59.02
73981;BME280;62348;51.412;5.436;2023-04-25T07:35:32;101220.63;;;9.99;59.03
73981;BME280;62348;51.412;5.436;2023-04-25T07:37:58;101218.56;;;10.06;58.51
73981;BME280;62348;51.412;5.436;2023-04-25T07:40:24;101222.97;;;10.12;58.57
73981;BME280;62348;51.412;5.436;2023-04-25T07:42:49;101226.16;;;10.26;59.37
73981;BME280;62348;51.412;5.436;2023-04-25T07:45:15;101227.22;;;10.42;58.65
73981;BME280;62348;51.412;5.436;2023-04-25T07:47:40;101226.03;;;10.55;57.88
73981;BME280;62348;51.412;5.436;2023-04-25T07:50:06;101232.88;;;10.63;57.44
73981;BME280;62348;51.412;5.436;2023-04-25T07:52:32;101233.63;;;10.80;55.62
73981;BME280;62348;51.412;5.436;2023-04-25T07:54:57;101239.13;;;10.85;57.01
73981;BME280;62348;51.412;5.436;2023-04-25T07:57:23;101238.66;;;10.93;56.52
73981;BME280;62348;51.412;5.436;2023-04-25T07:59:49;101246.47;;;10.90;53.98
73981;BME280;62348;51.412;5.436;2023-04-25T08:02:15;101241.91;;;10.96;54.60
73981;BME280;62348;51.412;5.436;2023-04-25T08:04:40;101253.88;;;11.00;54.56
73981;BME280;62348;51.412;5.436;2023-04-25T08:07:05;101255.91;;;10.87;53.54
73981;BME280;62348;51.412;5.436;2023-04-25T08:09:31;101254.31;;;10.69;53.56
73981;BME280;62348;51.412;5.436;2023-04-25T08:11:59;101265.13;;;10.69;55.25
73981;BME280;62348;51.412;5.436;2023-04-25T08:14:26;101256.53;;;10.72;54.04
73981;BME280;62348;51.412;5.436;2023-04-25T08:16:51;101262.75;;;10.73;54.54
73981;BME280;62348;51.412;5.436;2023-04-25T08:19:16;101267.72;;;10.59;53.97
73981;BME280;62348;51.412;5.436;2023-04-25T08:21:42;101275.22;;;10.35;53.70
73981;BME280;62348;51.412;5.436;2023-04-25T08:24:07;101278.25;;;10.22;55.89
73981;BME280;62348;51.412;5.436;2023-04-25T08:26:33;101289.25;;;9.98;56.16
73981;BME280;62348;51.412;5.436;2023-04-25T08:28:59;101283.25;;;9.79;56.86
73981;BME280;62348;51.412;5.436;2023-04-25T08:31:25;101282.34;;;9.56;58.03
73981;BME280;62348;51.412;5.436;2023-04-25T08:33:50;101290.41;;;9.40;58.19
73981;BME280;62348;51.412;5.436;2023-04-25T08:36:17;101292.25;;;9.22;58.00
73981;BME280;62348;51.412;5.436;2023-04-25T08:38:42;101297.56;;;9.05;58.75
73981;BME280;62348;51.412;5.436;2023-04-25T08:41:08;101303.31;;;8.97;60.46
73981;BME280;62348;51.412;5.436;2023-04-25T08:43:36;101304.44;;;8.84;59.87
73981;BME280;62348;51.412;5.436;2023-04-25T08:46:02;101301.03;;;8.77;61.11
73981;BME280;62348;51.412;5.436;2023-04-25T08:48:32;101305.84;;;8.75;61.89
73981;BME280;62348;51.412;5.436;2023-04-25T08:50:58;101313.34;;;8.73;62.76
73981;BME280;62348;51.412;5.436;2023-04-25T08:53:31;101318.03;;;8.77;64.15
73981;BME280;62348;51.412;5.436;2023-04-25T08:55:59;101321.88;;;8.82;63.28
73981;BME280;62348;51.412;5.436;2023-04-25T08:58:25;101324.47;;;8.88;63.70
73981;BME280;62348;51.412;5.436;2023-04-25T09:00:51;101333.13;;;8.90;62.26
73981;BME280;62348;51.412;5.436;2023-04-25T09:03:17;101339.34;;;8.91;62.93
73981;BME280;62348;51.412;5.436;2023-04-25T09:05:43;101346.13;;;8.93;62.32
73981;BME280;62348;51.412;5.436;2023-04-25T09:08:09;101344.75;;;8.91;60.67
73981;BME280;62348;51.412;5.436;2023-04-25T09:10:35;101347.19;;;8.92;61.35
73981;BME280;62348;51.412;5.436;2023-04-25T09:13:11;101350.59;;;8.99;61.02
73981;BME280;62348;51.412;5.436;2023-04-25T09:15:57;101349.63;;;9.06;61.60
73981;BME280;62348;51.412;5.436;2023-04-25T09:18:23;101357.81;;;9.23;61.64
73981;BME280;62348;51.412;5.436;2023-04-25T09:20:56;101363.97;;;9.35;61.84
73981;BME280;62348;51.412;5.436;2023-04-25T09:23:22;101366.19;;;9.38;59.06
73981;BME280;62348;51.412;5.436;2023-04-25T09:25:52;101361.03;;;9.36;59.82
73981;BME280;62348;51.412;5.436;2023-04-25T09:28:27;101367.69;;;9.46;60.53
73981;BME280;62348;51.412;5.436;2023-04-25T09:30:57;101369.00;;;9.72;59.13
73981;BME280;62348;51.412;5.436;2023-04-25T09:33:32;101376.06;;;9.90;56.54
73981;BME280;62348;51.412;5.436;2023-04-25T09:36:09;101377.22;;;9.94;57.46
73981;BME280;62348;51.412;5.436;2023-04-25T09:38:46;101377.97;;;10.06;57.03
73981;BME280;62348;51.412;5.436;2023-04-25T09:41:11;101378.47;;;10.20;56.18
73981;BME280;62348;51.412;5.436;2023-04-25T09:43:38;101381.38;;;10.47;55.16
73981;BME280;62348;51.412;5.436;2023-04-25T09:46:12;101378.91;;;10.63;54.68
73981;BME280;62348;51.412;5.436;2023-04-25T09:48:38;101390.31;;;10.65;53.94
73981;BME280;62348;51.412;5.436;2023-04-25T09:51:13;101392.44;;;10.63;53.47
73981;BME280;62348;51.412;5.436;2023-04-25T09:53:40;101398.75;;;10.51;53.69
73981;BME280;62348;51.412;5.436;2023-04-25T09:56:08;101390.31;;;10.48;54.05
73981;BME280;62348;51.412;5.436;2023-04-25T09:58:35;101388.75;;;10.35;52.31
73981;BME280;62348;51.412;5.436;2023-04-25T10:01:05;101392.78;;;10.32;54.50
73981;BME280;62348;51.412;5.436;2023-04-25T10:03:32;101397.44;;;10.37;53.99
73981;BME280;62348;51.412;5.436;2023-04-25T10:06:04;101398.75;;;10.51;53.31
73981;BME280;62348;51.412;5.436;2023-04-25T10:08:34;101400.22;;;10.59;52.40
73981;BME280;62348;51.412;5.436;2023-04-25T10:11:06;101395.03;;;10.74;54.11
73981;BME280;62348;51.412;5.436;2023-04-25T10:13:33;101392.41;;;10.80;51.52
73981;BME280;62348;51.412;5.436;2023-04-25T10:16:01;101387.81;;;10.80;52.47
73981;BME280;62348;51.412;5.436;2023-04-25T10:18:27;101389.28;;;10.88;52.82
73981;BME280;62348;51.412;5.436;2023-04-25T10:20:58;101388.78;;;11.13;53.37
73981;BME280;62348;51.412;5.436;2023-04-25T10:23:24;101386.34;;;11.33;53.48
73981;BME280;62348;51.412;5.436;2023-04-25T10:25:51;101384.50;;;11.39;51.98
73981;BME280;62348;51.412;5.436;2023-04-25T10:28:18;101383.88;;;11.32;51.38
73981;BME280;62348;51.412;5.436;2023-04-25T10:31:03;101381.06;;;11.22;53.68
73981;BME280;62348;51.412;5.436;2023-04-25T10:33:37;101383.06;;;11.09;53.03
73981;BME280;62348;51.412;5.436;2023-04-25T10:36:21;101392.38;;;11.19;53.37
73981;BME280;62348;51.412;5.436;2023-04-25T10:38:48;101393.25;;;11.24;51.89
73981;BME280;62348;51.412;5.436;2023-04-25T10:41:18;101397.06;;;11.23;50.61
73981;BME280;62348;51.412;5.436;2023-04-25T10:43:47;101402.72;;;11.22;52.92
73981;BME280;62348;51.412;5.436;2023-04-25T10:46:13;101400.06;;;11.05;50.68
73981;BME280;62348;51.412;5.436;2023-04-25T10:48:45;101389.03;;;10.89;51.74
73981;BME280;62348;51.412;5.436;2023-04-25T10:51:16;101397.19;;;10.72;51.52
73981;BME280;62348;51.412;5.436;2023-04-25T10:56:20;101402.28;;;10.52;51.12
73981;BME280;62348;51.412;5.436;2023-04-25T10:58:49;101404.06;;;10.46;51.07
73981;BME280;62348;51.412;5.436;2023-04-25T11:01:19;101400.13;;;10.37;51.26
73981;BME280;62348;51.412;5.436;2023-04-25T11:03:45;101399.72;;;10.28;54.56
73981;BME280;62348;51.412;5.436;2023-04-25T11:06:22;101404.69;;;10.20;54.71
73981;BME280;62348;51.412;5.436;2023-04-25T11:08:51;101398.63;;;10.12;56.26
73981;BME280;62348;51.412;5.436;2023-04-25T11:11:19;101401.81;;;10.09;56.00
73981;BME280;62348;51.412;5.436;2023-04-25T11:13:51;101403.34;;;10.34;57.09
73981;BME280;62348;51.412;5.436;2023-04-25T11:16:17;101406.13;;;10.56;53.64
73981;BME280;62348;51.412;5.436;2023-04-25T11:18:43;101401.34;;;10.80;54.55
73981;BME280;62348;51.412;5.436;2023-04-25T11:21:09;101396.28;;;11.06;54.01
73981;BME280;62348;51.412;5.436;2023-04-25T11:23:35;101404.47;;;11.11;53.05
73981;BME280;62348;51.412;5.436;2023-04-25T11:26:02;101407.94;;;11.06;52.70
73981;BME280;62348;51.412;5.436;2023-04-25T11:28:28;101409.34;;;10.92;52.57
73981;BME280;62348;51.412;5.436;2023-04-25T11:30:53;101409.13;;;10.77;51.38
73981;BME280;62348;51.412;5.436;2023-04-25T11:33:23;101415.38;;;10.60;52.97
73981;BME280;62348;51.412;5.436;2023-04-25T11:35:49;101420.53;;;10.45;53.46
73981;BME280;62348;51.412;5.436;2023-04-25T11:38:15;101427.56;;;10.29;53.88
73981;BME280;62348;51.412;5.436;2023-04-25T11:40:40;101426.44;;;10.13;54.83
73981;BME280;62348;51.412;5.436;2023-04-25T11:43:06;101432.16;;;10.00;55.31
73981;BME280;62348;51.412;5.436;2023-04-25T11:45:32;101440.25;;;9.83;56.84
73981;BME280;62348;51.412;5.436;2023-04-25T11:47:57;101442.88;;;9.66;57.97
73981;BME280;62348;51.412;5.436;2023-04-25T11:50:23;101441.84;;;9.55;58.26
73981;BME280;62348;51.412;5.436;2023-04-25T11:52:48;101444.44;;;9.50;58.52
73981;BME280;62348;51.412;5.436;2023-04-25T11:55:16;101441.88;;;9.43;57.17
73981;BME280;62348;51.412;5.436;2023-04-25T11:57:44;101442.34;;;9.40;55.71
73981;BME280;62348;51.412;5.436;2023-04-25T12:00:14;101439.28;;;9.48;54.98
73981;BME280;62348;51.412;5.436;2023-04-25T12:02:43;101450.41;;;9.64;55.38
73981;BME280;62348;51.412;5.436;2023-04-25T12:05:10;101452.50;;;9.73;53.58
73981;BME280;62348;51.412;5.436;2023-04-25T12:07:36;101454.78;;;9.82;54.10
73981;BME280;62348;51.412;5.436;2023-04-25T12:10:10;101456.22;;;10.01;56.15
73981;BME280;62348;51.412;5.436;2023-04-25T12:12:37;101450.19;;;10.11;54.72
73981;BME280;62348;51.412;5.436;2023-04-25T12:15:11;101455.38;;;10.12;54.66
73981;BME280;62348;51.412;5.436;2023-04-25T12:17:41;101462.22;;;10.03;54.49
73981;BME280;62348;51.412;5.436;2023-04-25T12:20:12;101461.22;;;9.92;54.46
73981;BME280;62348;51.412;5.436;2023-04-25T12:22:40;101462.50;;;9.90;55.13
73981;BME280;62348;51.412;5.436;2023-04-25T12:25:10;101464.50;;;9.94;55.65
73981;BME280;62348;51.412;5.436;2023-04-25T12:27:36;101460.97;;;9.94;54.35
73981;BME280;62348;51.412;5.436;2023-04-25T12:30:02;101465.78;;;9.92;53.07
73981;BME280;62348;51.412;5.436;2023-04-25T12:32:28;101468.25;;;9.93;53.20
73981;BME280;62348;51.412;5.436;2023-04-25T12:34:54;101469.06;;;9.94;54.14
73981;BME280;62348;51.412;5.436;2023-04-25T12:37:19;101460.16;;;9.93;54.01
73981;BME280;62348;51.412;5.436;2023-04-25T12:39:45;101469.50;;;10.03;54.25
73981;BME280;62348;51.412;5.436;2023-04-25T12:42:11;101460.44;;;10.09;54.43
73981;BME280;62348;51.412;5.436;2023-04-25T12:44:39;101459.66;;;10.25;55.78
73981;BME280;62348;51.412;5.436;2023-04-25T12:47:05;101460.94;;;10.34;51.81
73981;BME280;62348;51.412;5.436;2023-04-25T12:49:31;101468.63;;;10.43;52.08
73981;BME280;62348;51.412;5.436;2023-04-25T12:51:57;101468.63;;;10.43;52.39
73981;BME280;62348;51.412;5.436;2023-04-25T12:54:23;101476.16;;;10.41;52.49
73981;BME280;62348;51.412;5.436;2023-04-25T12:56:48;101478.91;;;10.29;49.34